Clarklake, Michigan
Current Conditions -  °F | °C
As of 3:56 PM on Friday 31 Oct 2014 (Local Time) from KJXN Reporting Station
Unknown Precip Unknown Precip  
Wind Chill: 25°   Ceiling: 1200
Heat Index: 36°   Visibility: 10mi
Dew Point: 34°   Wind: 20mph
Humidity: 93%   Direction: 10°N
Pressure: 29.96"   Gusts: 31mph
Location:  42.12°N, 84.34°W
Report Text: KJXN 311956Z 01017G27KT 10SM UP BKN012 OVC020 02/01 A2996 RMK AO2 PK WND 34027/1859 RAE09UPB13 SLP151 P0001 T00220011
Loading
Personal Weather Stations






























Interactive Weather Map
Tropical Storm Tracking
New forecast layout! Learn more

10-Day Weather Forecast

Advertisements
Track Severe Weather on mobile